createdAt,value
2022-11-28T16:25:25.740Z,31.38
2022-11-28T16:28:35.038Z,28.05
2022-11-28T16:31:37.394Z,28.98
2022-11-28T16:34:48.515Z,25.40
2022-11-28T16:37:50.768Z,22.50
2022-11-28T16:41:00.781Z,18.63
2022-11-28T16:44:06.228Z,22.40
2022-11-28T16:47:25.678Z,19.77
2022-11-28T16:50:28.417Z,23.55
2022-11-28T16:53:50.979Z,18.52
2022-11-28T16:56:57.749Z,25.63
2022-11-28T17:00:00.027Z,24.83
2022-11-28T17:03:11.612Z,26.30
2022-11-28T17:06:22.412Z,32.63
2022-11-28T17:09:24.626Z,25.30
2022-11-28T17:12:29.658Z,26.45
2022-11-28T17:15:31.768Z,29.73
2022-11-28T17:18:33.939Z,25.77
2022-11-28T17:21:57.847Z,27.70
2022-11-28T17:25:01.660Z,23.23
2022-11-28T17:28:05.370Z,25.08
2022-11-28T17:31:10.515Z,22.50
2022-11-28T17:34:23.237Z,27.60
2022-11-28T17:37:25.358Z,21.38
2022-11-28T17:40:33.441Z,21.80
2022-11-28T17:43:39.022Z,26.15
2022-11-28T17:46:42.089Z,22.55
2022-11-28T17:49:46.402Z,23.75
2022-11-28T17:52:49.071Z,20.92
2022-11-28T17:55:59.044Z,23.63
2022-11-28T17:59:02.486Z,16.95
2022-11-28T18:02:04.992Z,17.70
2022-11-28T18:05:08.599Z,21.52
2022-11-28T18:08:10.791Z,20.17
2022-11-28T18:11:14.539Z,18.98
2022-11-28T18:14:19.678Z,19.10
2022-11-28T18:17:22.718Z,16.20
2022-11-28T18:20:28.730Z,19.15
2022-11-28T18:23:31.419Z,16.85
2022-11-28T18:26:33.787Z,20.00
2022-11-28T18:29:35.983Z,20.00
2022-11-28T18:32:38.503Z,19.58
2022-11-28T18:35:40.958Z,21.20
2022-11-28T18:38:45.284Z,25.65
2022-11-28T18:41:47.680Z,26.13
2022-11-28T18:44:50.381Z,27.27
2022-11-28T18:47:55.953Z,27.70
2022-11-28T18:51:02.322Z,27.70
2022-11-28T18:54:05.674Z,29.27
2022-11-28T18:57:09.419Z,29.45
2022-11-28T19:00:12.250Z,28.27
2022-11-28T19:03:15.059Z,28.60
2022-11-28T19:06:17.569Z,32.60
2022-11-28T22:16:29.582Z,21.25
2022-11-28T22:19:33.930Z,19.75
2022-11-28T22:22:36.120Z,17.85
2022-11-28T22:25:38.683Z,19.73
2022-11-28T22:28:41.736Z,19.35
2022-11-28T22:31:44.625Z,18.55
2022-11-28T22:34:46.950Z,16.80
2022-11-28T22:37:49.207Z,20.67
2022-11-28T22:40:51.360Z,17.40
2022-11-28T22:44:00.372Z,17.38
2022-11-28T22:47:02.894Z,17.52
2022-11-28T22:50:05.953Z,19.20
2022-11-28T22:53:08.593Z,18.92
2022-11-28T22:56:14.335Z,17.38
2022-11-28T22:59:17.397Z,20.80
2022-11-28T23:02:19.829Z,17.65
2022-11-28T23:05:22.639Z,18.02
2022-11-28T23:08:24.810Z,17.50
2022-11-28T23:11:31.046Z,21.38
2022-11-28T23:14:34.130Z,15.20
2022-11-28T23:17:36.657Z,18.40
2022-11-28T23:20:38.945Z,18.88
2022-11-28T23:23:41.449Z,18.30
2022-11-28T23:26:44.082Z,16.25
2022-11-28T23:29:47.745Z,19.52
2022-11-28T23:32:49.994Z,18.38
2022-11-28T23:35:53.035Z,17.17
2022-11-28T23:38:57.243Z,16.92
2022-11-28T23:42:00.062Z,14.38
2022-11-28T23:45:02.298Z,18.65
2022-11-28T23:48:04.746Z,18.00
2022-11-28T23:51:07.508Z,16.98
2022-11-28T23:54:10.984Z,17.65
2022-11-28T23:57:13.155Z,17.55
